Flying Cat 3 — SX6671 — position and weather

sailwx.info

Track history (hours):
 
Tides and Currents Weather Stations Pressure Air Temp Water Temp Dewpoint Dewpoint Depression Visibility Wind Speed Wind Dir Waves Ship Positions

Flying Cat 3

Last reported at 2015-Sep-01 01:33 UTC. Time now 2015-Sep-01 01:55 UTC.
Position N 37°57' E 023°38'.

Length 48 m; draft 1.5 m.

Type: High speed craft. MMSI: 239552000.

Date/timePositionNaut miles runAvg speedWind from/ knotsBaromVisibWave heightAir tempDewpointWater temp
2015-Sep-01 01:33N 37°57' E 023°38'0 0.0
2015-Sep-01 00:33N 37°57' E 023°38'0 0.0
2015-Aug-31 23:33N 37°57' E 023°38'0 0.0
2015-Aug-31 22:33N 37°57' E 023°38'0 0.0
2015-Aug-31 21:33N 37°57' E 023°38'8 8.1
2015-Aug-31 20:34N 37°49' E 023°40'5 0.7
2015-Aug-31 12:31N 37°43' E 023°40'1313.3
2015-Aug-31 11:31N 37°57' E 023°38'0 0.0
2015-Aug-31 10:31N 37°57' E 023°38'0 0.0
2015-Aug-31 09:31N 37°57' E 023°38'1212.7
2015-Aug-31 08:33N 37°45' E 023°36'3 1.1
2015-Aug-31 05:34N 37°42' E 023°34'1513.5
2015-Aug-31 04:25N 37°57' E 023°39'0 0.0
2015-Aug-31 03:31N 37°57' E 023°39'0 0.0
2015-Aug-31 02:31N 37°57' E 023°39'0 0.0
2015-Aug-31 01:29N 37°57' E 023°39'0 0.0
2015-Aug-31 00:29N 37°57' E 023°39'0 0.0
2015-Aug-30 23:29N 37°57' E 023°39'0 0.0
2015-Aug-30 22:32N 37°57' E 023°39'0 0.0
2015-Aug-30 21:28N 37°57' E 023°39'1010.7
2015-Aug-30 20:34N 37°47' E 023°42'5 0.6
2015-Aug-30 12:33N 37°43' E 023°41'1413.7
2015-Aug-30 11:30N 37°57' E 023°38'0 0.0
2015-Aug-30 10:33N 37°57' E 023°38'0 0.0
2015-Aug-30 09:33N 37°57' E 023°38'1110.8
2015-Aug-30 08:34N 37°46' E 023°36'2725.1
2015-Aug-30 07:30N 37°21' E 023°26'2211.5
2015-Aug-30 05:34N 37°42' E 023°35'1513.2
2015-Aug-30 04:25N 37°57' E 023°39'0 0.0
2015-Aug-30 03:31N 37°57' E 023°39'0 0.0
2015-Aug-30 02:31N 37°57' E 023°39'0 0.0
2015-Aug-30 01:31N 37°57' E 023°39'0 0.0
2015-Aug-30 00:31N 37°57' E 023°39'0 0.0
2015-Aug-29 23:31N 37°57' E 023°39'0 0.0
2015-Aug-29 22:31N 37°57' E 023°39'0 0.0
2015-Aug-29 21:31N 37°57' E 023°39'14 1.6
2015-Aug-29 12:33N 37°42' E 023°41'1413.9
2015-Aug-29 11:31N 37°57' E 023°38'0 0.0
2015-Aug-29 10:31N 37°57' E 023°38'0 0.0
2015-Aug-29 09:31N 37°57' E 023°38'1010.5
2015-Aug-29 08:33N 37°47' E 023°36'5 1.8
2015-Aug-29 05:33N 37°42' E 023°35'1515.4
2015-Aug-29 04:33N 37°57' E 023°39'0 0.0
2015-Aug-29 03:33N 37°57' E 023°39'0 0.0
2015-Aug-29 02:33N 37°57' E 023°39'0 0.0
2015-Aug-29 01:30N 37°57' E 023°39'0 0.0
2015-Aug-29 00:33N 37°57' E 023°39'0 0.0
2015-Aug-28 23:33N 37°57' E 023°39'0 0.0
2015-Aug-28 22:33N 37°57' E 023°39'0 0.0
2015-Aug-28 21:30N 37°57' E 023°39'7 0.8
2015-Aug-28 12:34N 37°49' E 023°37'7 7.4
2015-Aug-28 11:32N 37°57' E 023°38'0 0.0
2015-Aug-28 10:32N 37°57' E 023°38'0 0.0
2015-Aug-28 09:32N 37°57' E 023°38'1010.3
2015-Aug-28 08:34N 37°47' E 023°36'4 1.5
2015-Aug-28 05:33N 37°42' E 023°35'1513.3
2015-Aug-28 04:28N 37°57' E 023°39'0 0.0
2015-Aug-28 03:28N 37°57' E 023°39'0 0.0
2015-Aug-28 02:31N 37°57' E 023°39'0 0.0
2015-Aug-28 01:31N 37°57' E 023°39'0 0.0
2015-Aug-28 00:28N 37°57' E 023°39'0 0.0
2015-Aug-27 23:31N 37°57' E 023°39'0 0.0
2015-Aug-27 22:28N 37°57' E 023°39'0 0.0
2015-Aug-27 21:31N 37°57' E 023°39'1313.7
2015-Aug-27 20:33N 37°44' E 023°44'3 0.4
2015-Aug-27 12:34N 37°42' E 023°42'1514.6
2015-Aug-27 11:30N 37°57' E 023°38'0 0.0
2015-Aug-27 10:33N 37°57' E 023°38'0 0.0
2015-Aug-27 09:33N 37°57' E 023°38'0 0.0
2015-Aug-27 08:33N 37°57' E 023°38'0 0.0
2015-Aug-27 07:24N 37°57' E 023°38'0 0.0
2015-Aug-27 06:33N 37°57' E 023°38'0 0.0
2015-Aug-27 05:27N 37°57' E 023°38'0 0.0
2015-Aug-27 04:33N 37°57' E 023°38'0 0.0
2015-Aug-27 03:33N 37°57' E 023°38'0 0.0
2015-Aug-27 02:33N 37°57' E 023°38'0 0.0
2015-Aug-27 01:30N 37°57' E 023°38'0 0.0
2015-Aug-27 00:30N 37°57' E 023°38'0 0.0
2015-Aug-26 23:33N 37°57' E 023°38'0 0.0
2015-Aug-26 22:33N 37°57' E 023°38'0 0.0
2015-Aug-26 21:33N 37°57' E 023°38'14 1.5
2015-Aug-26 12:33N 37°43' E 023°41'1413.2
2015-Aug-26 11:30N 37°57' E 023°38'0 0.0
2015-Aug-26 10:33N 37°57' E 023°38'0 0.0
2015-Aug-26 09:33N 37°57' E 023°38'0 0.0
2015-Aug-26 08:33N 37°57' E 023°38'0 0.0
2015-Aug-26 05:27N 37°57' E 023°38'0 0.0
2015-Aug-26 04:33N 37°57' E 023°38'0 0.0
2015-Aug-26 03:33N 37°57' E 023°38'0 0.0
2015-Aug-26 02:33N 37°57' E 023°38'0 0.0
2015-Aug-26 01:30N 37°57' E 023°38'0 0.0
2015-Aug-26 00:33N 37°57' E 023°38'0 0.0
2015-Aug-25 23:33N 37°57' E 023°38'0 0.0
2015-Aug-25 22:33N 37°57' E 023°38'0 0.0
2015-Aug-25 21:33N 37°57' E 023°38'10 9.9
2015-Aug-25 20:34N 37°47' E 023°42'5 0.6
2015-Aug-25 12:33N 37°42' E 023°41'1514.8
2015-Aug-25 11:33N 37°57' E 023°38'0 0.0
2015-Aug-25 10:33N 37°57' E 023°38'0 0.0
2015-Aug-25 09:30N 37°57' E 023°38'0 0.0
2015-Aug-25 08:30N 37°57' E 023°38'0 0.0
2015-Aug-25 07:33N 37°57' E 023°38'0 0.0
2015-Aug-25 06:24N 37°57' E 023°38'0 0.0
2015-Aug-25 05:30N 37°57' E 023°38'0 0.0
2015-Aug-25 04:33N 37°57' E 023°38'0 0.0
2015-Aug-25 03:30N 37°57' E 023°38'0 0.0
2015-Aug-25 02:30N 37°57' E 023°38'0 0.0
2015-Aug-25 01:30N 37°57' E 023°38'0 0.0
2015-Aug-25 00:33N 37°57' E 023°38'0 0.0
2015-Aug-24 23:30N 37°57' E 023°38'0 0.0
2015-Aug-24 22:33N 37°57' E 023°38'0 0.0
2015-Aug-24 21:33N 37°57' E 023°38'15 1.6
2015-Aug-24 12:33N 37°42' E 023°41'1513.7
2015-Aug-24 11:29N 37°57' E 023°38'0 0.0
2015-Aug-24 10:29N 37°57' E 023°38'0 0.0
2015-Aug-24 09:29N 37°57' E 023°38'1212.9
2015-Aug-24 08:33N 37°45' E 023°35'3 1.1
2015-Aug-24 05:33N 37°42' E 023°35'1514.2
2015-Aug-24 04:28N 37°57' E 023°39'0 0.0
2015-Aug-24 03:31N 37°57' E 023°39'0 0.0
2015-Aug-24 02:31N 37°57' E 023°39'0 0.0
2015-Aug-24 01:31N 37°57' E 023°39'0 0.0
2015-Aug-24 00:25N 37°57' E 023°39'0 0.0
2015-Aug-23 23:31N 37°57' E 023°39'0 0.0
2015-Aug-23 22:25N 37°57' E 023°39'0 0.0
2015-Aug-23 21:31N 37°57' E 023°39'5 5.5
2015-Aug-23 20:34N 37°51' E 023°39'9 1.2
2015-Aug-23 12:33N 37°42' E 023°41'1514.8
2015-Aug-23 11:33N 37°57' E 023°38'0 0.0
2015-Aug-23 10:33N 37°57' E 023°38'0 0.0
2015-Aug-23 09:30N 37°57' E 023°38'1010.7
2015-Aug-23 08:34N 37°47' E 023°36'4 1.3
2015-Aug-23 05:34N 37°43' E 023°35'1413.0
2015-Aug-23 04:29N 37°57' E 023°39'0 0.0
2015-Aug-23 03:32N 37°57' E 023°39'0 0.0
2015-Aug-23 02:29N 37°57' E 023°39'0 0.0
2015-Aug-23 01:32N 37°57' E 023°39'0 0.0
2015-Aug-23 00:32N 37°57' E 023°39'0 0.0
2015-Aug-22 23:32N 37°57' E 023°39'0 0.0
2015-Aug-22 22:26N 37°57' E 023°39'0 0.0
2015-Aug-22 21:32N 37°57' E 023°39'8 7.8
2015-Aug-22 20:34N 37°49' E 023°40'8 0.9
2015-Aug-22 12:34N 37°42' E 023°42'1514.4
2015-Aug-22 11:30N 37°57' E 023°38'0 0.0
2015-Aug-22 10:33N 37°57' E 023°38'0 0.0
2015-Aug-22 09:33N 37°57' E 023°38'1010.2
2015-Aug-22 08:34N 37°47' E 023°36'5 1.7
2015-Aug-22 05:34N 37°42' E 023°35'1515.0
2015-Aug-22 04:33N 37°57' E 023°39'0 0.0
2015-Aug-22 03:33N 37°57' E 023°39'0 0.0
2015-Aug-22 02:33N 37°57' E 023°39'  
Track history (hours):
 
Tides and Currents Weather Stations Pressure Air Temp Water Temp Dewpoint Dewpoint Depression Visibility Wind Speed Wind Dir Waves Ship Positions

Flying Cat 3

Last reported at 2015-Sep-01 01:33 UTC. Time now 2015-Sep-01 01:55 UTC.
Position N 37°57' E 023°38'.

Length 48 m; draft 1.5 m.

Type: High speed craft. MMSI: 239552000.

Date/timePositionNaut miles runAvg speedWind from/ knotsBaromVisibWave heightAir tempDewpointWater temp
2015-Sep-01 01:33N 37°57' E 023°38'0 0.0
2015-Sep-01 00:33N 37°57' E 023°38'0 0.0
2015-Aug-31 23:33N 37°57' E 023°38'0 0.0
2015-Aug-31 22:33N 37°57' E 023°38'0 0.0
2015-Aug-31 21:33N 37°57' E 023°38'8 8.1
2015-Aug-31 20:34N 37°49' E 023°40'5 0.7
2015-Aug-31 12:31N 37°43' E 023°40'1313.3
2015-Aug-31 11:31N 37°57' E 023°38'0 0.0
2015-Aug-31 10:31N 37°57' E 023°38'0 0.0
2015-Aug-31 09:31N 37°57' E 023°38'1212.7
2015-Aug-31 08:33N 37°45' E 023°36'3 1.1
2015-Aug-31 05:34N 37°42' E 023°34'1513.5
2015-Aug-31 04:25N 37°57' E 023°39'0 0.0
2015-Aug-31 03:31N 37°57' E 023°39'0 0.0
2015-Aug-31 02:31N 37°57' E 023°39'0 0.0
2015-Aug-31 01:29N 37°57' E 023°39'0 0.0
2015-Aug-31 00:29N 37°57' E 023°39'0 0.0
2015-Aug-30 23:29N 37°57' E 023°39'0 0.0
2015-Aug-30 22:32N 37°57' E 023°39'0 0.0
2015-Aug-30 21:28N 37°57' E 023°39'1010.7
2015-Aug-30 20:34N 37°47' E 023°42'5 0.6
2015-Aug-30 12:33N 37°43' E 023°41'1413.7
2015-Aug-30 11:30N 37°57' E 023°38'0 0.0
2015-Aug-30 10:33N 37°57' E 023°38'0 0.0
2015-Aug-30 09:33N 37°57' E 023°38'1110.8
2015-Aug-30 08:34N 37°46' E 023°36'2725.1
2015-Aug-30 07:30N 37°21' E 023°26'2211.5
2015-Aug-30 05:34N 37°42' E 023°35'1513.2
2015-Aug-30 04:25N 37°57' E 023°39'0 0.0
2015-Aug-30 03:31N 37°57' E 023°39'0 0.0
2015-Aug-30 02:31N 37°57' E 023°39'0 0.0
2015-Aug-30 01:31N 37°57' E 023°39'0 0.0
2015-Aug-30 00:31N 37°57' E 023°39'0 0.0
2015-Aug-29 23:31N 37°57' E 023°39'0 0.0
2015-Aug-29 22:31N 37°57' E 023°39'0 0.0
2015-Aug-29 21:31N 37°57' E 023°39'14 1.6
2015-Aug-29 12:33N 37°42' E 023°41'1413.9
2015-Aug-29 11:31N 37°57' E 023°38'0 0.0
2015-Aug-29 10:31N 37°57' E 023°38'0 0.0
2015-Aug-29 09:31N 37°57' E 023°38'1010.5
2015-Aug-29 08:33N 37°47' E 023°36'5 1.8
2015-Aug-29 05:33N 37°42' E 023°35'1515.4
2015-Aug-29 04:33N 37°57' E 023°39'0 0.0
2015-Aug-29 03:33N 37°57' E 023°39'0 0.0
2015-Aug-29 02:33N 37°57' E 023°39'0 0.0
2015-Aug-29 01:30N 37°57' E 023°39'0 0.0
2015-Aug-29 00:33N 37°57' E 023°39'0 0.0
2015-Aug-28 23:33N 37°57' E 023°39'0 0.0
2015-Aug-28 22:33N 37°57' E 023°39'0 0.0
2015-Aug-28 21:30N 37°57' E 023°39'7 0.8
2015-Aug-28 12:34N 37°49' E 023°37'7 7.4
2015-Aug-28 11:32N 37°57' E 023°38'0 0.0
2015-Aug-28 10:32N 37°57' E 023°38'0 0.0
2015-Aug-28 09:32N 37°57' E 023°38'1010.3
2015-Aug-28 08:34N 37°47' E 023°36'4 1.5
2015-Aug-28 05:33N 37°42' E 023°35'1513.3
2015-Aug-28 04:28N 37°57' E 023°39'0 0.0
2015-Aug-28 03:28N 37°57' E 023°39'0 0.0
2015-Aug-28 02:31N 37°57' E 023°39'0 0.0
2015-Aug-28 01:31N 37°57' E 023°39'0 0.0
2015-Aug-28 00:28N 37°57' E 023°39'0 0.0
2015-Aug-27 23:31N 37°57' E 023°39'0 0.0
2015-Aug-27 22:28N 37°57' E 023°39'0 0.0
2015-Aug-27 21:31N 37°57' E 023°39'1313.7
2015-Aug-27 20:33N 37°44' E 023°44'3 0.4
2015-Aug-27 12:34N 37°42' E 023°42'1514.6
2015-Aug-27 11:30N 37°57' E 023°38'0 0.0
2015-Aug-27 10:33N 37°57' E 023°38'0 0.0
2015-Aug-27 09:33N 37°57' E 023°38'0 0.0
2015-Aug-27 08:33N 37°57' E 023°38'0 0.0
2015-Aug-27 07:24N 37°57' E 023°38'0 0.0
2015-Aug-27 06:33N 37°57' E 023°38'0 0.0
2015-Aug-27 05:27N 37°57' E 023°38'0 0.0
2015-Aug-27 04:33N 37°57' E 023°38'0 0.0
2015-Aug-27 03:33N 37°57' E 023°38'0 0.0
2015-Aug-27 02:33N 37°57' E 023°38'0 0.0
2015-Aug-27 01:30N 37°57' E 023°38'0 0.0
2015-Aug-27 00:30N 37°57' E 023°38'0 0.0
2015-Aug-26 23:33N 37°57' E 023°38'0 0.0
2015-Aug-26 22:33N 37°57' E 023°38'0 0.0
2015-Aug-26 21:33N 37°57' E 023°38'14 1.5
2015-Aug-26 12:33N 37°43' E 023°41'1413.2
2015-Aug-26 11:30N 37°57' E 023°38'0 0.0
2015-Aug-26 10:33N 37°57' E 023°38'0 0.0
2015-Aug-26 09:33N 37°57' E 023°38'0 0.0
2015-Aug-26 08:33N 37°57' E 023°38'0 0.0
2015-Aug-26 05:27N 37°57' E 023°38'0 0.0
2015-Aug-26 04:33N 37°57' E 023°38'0 0.0
2015-Aug-26 03:33N 37°57' E 023°38'0 0.0
2015-Aug-26 02:33N 37°57' E 023°38'0 0.0
2015-Aug-26 01:30N 37°57' E 023°38'0 0.0
2015-Aug-26 00:33N 37°57' E 023°38'0 0.0
2015-Aug-25 23:33N 37°57' E 023°38'0 0.0
2015-Aug-25 22:33N 37°57' E 023°38'0 0.0
2015-Aug-25 21:33N 37°57' E 023°38'10 9.9
2015-Aug-25 20:34N 37°47' E 023°42'5 0.6
2015-Aug-25 12:33N 37°42' E 023°41'1514.8
2015-Aug-25 11:33N 37°57' E 023°38'0 0.0
2015-Aug-25 10:33N 37°57' E 023°38'0 0.0
2015-Aug-25 09:30N 37°57' E 023°38'0 0.0
2015-Aug-25 08:30N 37°57' E 023°38'0 0.0
2015-Aug-25 07:33N 37°57' E 023°38'0 0.0
2015-Aug-25 06:24N 37°57' E 023°38'0 0.0
2015-Aug-25 05:30N 37°57' E 023°38'0 0.0
2015-Aug-25 04:33N 37°57' E 023°38'0 0.0
2015-Aug-25 03:30N 37°57' E 023°38'0 0.0
2015-Aug-25 02:30N 37°57' E 023°38'0 0.0
2015-Aug-25 01:30N 37°57' E 023°38'0 0.0
2015-Aug-25 00:33N 37°57' E 023°38'0 0.0
2015-Aug-24 23:30N 37°57' E 023°38'0 0.0
2015-Aug-24 22:33N 37°57' E 023°38'0 0.0
2015-Aug-24 21:33N 37°57' E 023°38'15 1.6
2015-Aug-24 12:33N 37°42' E 023°41'1513.7
2015-Aug-24 11:29N 37°57' E 023°38'0 0.0
2015-Aug-24 10:29N 37°57' E 023°38'0 0.0
2015-Aug-24 09:29N 37°57' E 023°38'1212.9
2015-Aug-24 08:33N 37°45' E 023°35'3 1.1
2015-Aug-24 05:33N 37°42' E 023°35'1514.2
2015-Aug-24 04:28N 37°57' E 023°39'0 0.0
2015-Aug-24 03:31N 37°57' E 023°39'0 0.0
2015-Aug-24 02:31N 37°57' E 023°39'0 0.0
2015-Aug-24 01:31N 37°57' E 023°39'0 0.0
2015-Aug-24 00:25N 37°57' E 023°39'0 0.0
2015-Aug-23 23:31N 37°57' E 023°39'0 0.0
2015-Aug-23 22:25N 37°57' E 023°39'0 0.0
2015-Aug-23 21:31N 37°57' E 023°39'5 5.5
2015-Aug-23 20:34N 37°51' E 023°39'9 1.2
2015-Aug-23 12:33N 37°42' E 023°41'1514.8
2015-Aug-23 11:33N 37°57' E 023°38'0 0.0
2015-Aug-23 10:33N 37°57' E 023°38'0 0.0
2015-Aug-23 09:30N 37°57' E 023°38'1010.7
2015-Aug-23 08:34N 37°47' E 023°36'4 1.3
2015-Aug-23 05:34N 37°43' E 023°35'1413.0
2015-Aug-23 04:29N 37°57' E 023°39'0 0.0
2015-Aug-23 03:32N 37°57' E 023°39'0 0.0
2015-Aug-23 02:29N 37°57' E 023°39'0 0.0
2015-Aug-23 01:32N 37°57' E 023°39'0 0.0
2015-Aug-23 00:32N 37°57' E 023°39'0 0.0
2015-Aug-22 23:32N 37°57' E 023°39'0 0.0
2015-Aug-22 22:26N 37°57' E 023°39'0 0.0
2015-Aug-22 21:32N 37°57' E 023°39'8 7.8
2015-Aug-22 20:34N 37°49' E 023°40'8 0.9
2015-Aug-22 12:34N 37°42' E 023°42'1514.4
2015-Aug-22 11:30N 37°57' E 023°38'0 0.0
2015-Aug-22 10:33N 37°57' E 023°38'0 0.0
2015-Aug-22 09:33N 37°57' E 023°38'1010.2
2015-Aug-22 08:34N 37°47' E 023°36'5 1.7
2015-Aug-22 05:34N 37°42' E 023°35'1515.0
2015-Aug-22 04:33N 37°57' E 023°39'0 0.0
2015-Aug-22 03:33N 37°57' E 023°39'0 0.0
2015-Aug-22 02:33N 37°57' E 023°39'  

Dump ship's entire track history